Main page
METAR-TAF:

METAR-TAF

Airports :

Brussels Airport. Zaventem

Brussels, Belgium

latitude: 50-54N, longitude: 004-32E, elevation: 55 m

Current weather observation

The report was made 18 minutes ago, at 10:20 UTC
Wind 10 kt from the Southwest
Temperature 8°C
Humidity 81%
Pressure 1023 hPa
Visibility 10 km or more
no clouds below 1500 m and no cumulonimbus

METAR: EBBR 201020Z 22010KT CAVOK 08/05 Q1023 NOSIG

Time: 11:38 (10:38 UTC)

Forecast

The report was made 5 hours and 38 minutes ago, at 05:00 UTC
Forecast valid from 20 at 06 UTC to 21 at 12 UTC
Wind 8 kt from the Southwest
Visibility 10 km or more
Few clouds at a height of 2500 ft

TAF: EBBR 200500Z 2006/2112 22008KT 9999 FEW025

Weather observations and forecasts of more than 4000 airports (METAR and TAF reports).

The available stations are represented by yellow and red dots on the map.

Hover mouse over dot to see the name of the station.

Then click to see weather observations and forecasts.

To change the map : click on the green buttons with a black cross to zoom in, on the green button with a dash to zoom out, or on the green arrows for adjacent maps.


METAR-TAF: